Flight Track Log - Related Links

Times and Time Zones

All times are in EDT time to prevent confusion due to time zone crossing. See the KAP4751 flight status page for this flight to view local times or setup timezone preferences in your user account.

Time Position Orientation Groundspeed Altitude Reporting Facility
EDT Latitude Longitude Course Direction KTS MPH feet Rate Location/Type
Wed 05:31:28 PM 18.4333 -65.9667 90° East 110 127 1,000  Level San Juan Center
Wed 05:32:29 PM 18.4333 -65.9500 90° East 110 127 1,800 694 Climbing San Juan Center
Wed 05:33:29 PM 18.4333 -65.9167 90° East 110 127 2,400 600 Climbing San Juan Center
Wed 05:34:29 PM 18.4333 -65.8833 90° East 110 127 3,000 595 Climbing San Juan Center
Wed 05:35:30 PM 18.4333 -65.8500 90° East 120 138 3,600 496 Climbing San Juan Center
Wed 05:36:30 PM 18.4333 -65.8167 90° East 110 127 4,000 500 Climbing San Juan Center
Wed 05:37:30 PM 18.4333 -65.7833 90° East 120 138 4,600 545 Climbing San Juan Center
Wed 05:38:31 PM 18.4333 -65.7333 90° East 130 150 5,100 496 Climbing San Juan Center
Wed 05:39:31 PM 18.4333 -65.7000 90° East 150 173 5,600 550 Climbing San Juan Center
Wed 05:40:31 PM 18.4333 -65.6667 90° East 140 161 6,200 545 Climbing San Juan Center
Wed 05:41:32 PM 18.4333 -65.6167 90° East 120 138 6,700 397 Climbing San Juan Center
Wed 05:42:32 PM 18.4333 -65.5833 90° East 150 173 7,000 150 Climbing San Juan Center
Wed 05:43:32 PM 18.4333 -65.5333 90° East 170 196 7,000  Level San Juan Center
Wed 05:44:32 PM 18.4333 -65.4833 90° East 160 184 7,000  Level San Juan Center
Wed 05:45:33 PM 18.4167 -65.4333 109° East 160 184 7,000  Level San Juan Center
Wed 05:46:33 PM 18.4167 -65.4000 90° East 160 184 7,000  Level San Juan Center
Wed 05:47:33 PM 18.4167 -65.3500 90° East 160 184 7,000  Level San Juan Center
Wed 05:48:33 PM 18.4167 -65.3000 90° East 170 196 7,000  Level San Juan Center
Wed 05:49:34 PM 18.4167 -65.2500 90° East 160 184 7,000  Level San Juan Center
Wed 05:50:34 PM 18.4333 -65.2000 71° East 160 184 7,000  Level San Juan Center
Wed 05:51:34 PM 18.4167 -65.1500 109° East 160 184 7,000  Level San Juan Center
Wed 05:52:35 PM 18.4167 -65.1000 90° East 160 184 7,000  Level San Juan Center
Wed 05:53:35 PM 18.4167 -65.0667 90° East 160 184 7,000  Level San Juan Center
Wed 05:54:35 PM 18.4167 -65.0167 90° East 160 184 7,000  Level San Juan Center
Wed 05:55:36 PM 18.4167 -64.9667 90° East 160 184 7,000  Level San Juan Center
Wed 05:56:36 PM 18.4167 -64.9167 90° East 160 184 7,000  Level San Juan Center
Wed 05:57:36 PM 18.4167 -64.8667 90° East 160 184 7,000  Level San Juan Center
Wed 05:58:37 PM 18.4167 -64.8167 90° East 160 184 7,000  Level San Juan Center
Wed 05:59:37 PM 18.4167 -64.7833 90° East 160 184 7,000  Level San Juan Center
Wed 06:00:37 PM 18.4167 -64.7333 90° East 160 184 7,000  Level San Juan Center
Wed 06:01:38 PM 18.4000 -64.6833 109° East 150 173 7,000  Level San Juan Center
Wed 06:02:38 PM 18.4000 -64.6333 90° East 160 184 7,000  Level San Juan Center
Wed 06:03:38 PM 18.4000 -64.6000 90° East 160 184 7,000  Level San Juan Center
Wed 06:04:38 PM 18.4000 -64.5500 90° East 150 173 7,000  Level San Juan Center
Wed 06:05:39 PM 18.4000 -64.5000 90° East 160 184 7,000  Level San Juan Center
Wed 06:06:39 PM 18.4000 -64.4500 90° East 160 184 7,000  Level San Juan Center
Wed 06:07:39 PM 18.4000 -64.4167 90° East 150 173 7,000  Level San Juan Center
Wed 06:08:40 PM 18.4000 -64.3667 90° East 150 173 7,000  Level San Juan Center
Wed 06:09:40 PM 18.4000 -64.3167 90° East 150 173 7,000  Level San Juan Center
Wed 06:10:40 PM 18.4000 -64.2833 90° East 150 173 7,000  Level San Juan Center
Wed 06:11:41 PM 18.4000 -64.2333 90° East 140 161 7,000  Level San Juan Center
Wed 06:12:41 PM 18.4000 -64.1833 90° East 140 161 7,000  Level San Juan Center
Wed 06:13:41 PM 18.4000 -64.1500 90° East 140 161 7,000  Level San Juan Center
Wed 06:15:42 PM 18.4000 -64.0667 90° East 150 173 7,000  Level San Juan Center
Wed 06:17:43 PM 18.3833 -63.9833 102° East 140 161 7,000  Level San Juan Center
Wed 06:18:43 PM 18.4000 -63.9333 71° East 160 184 7,000  Level San Juan Center
Wed 06:19:43 PM 18.3833 -63.8833 109° East 150 173 7,000  Level San Juan Center
Wed 06:22:00 PM 18.3834 -63.8284 90° East  Level FlightAware Approximate
Wed 06:29:00 PM 18.3108 -63.5516 124° Southeast  Level FlightAware Approximate
Wed 06:30:00 PM 18.2883 -63.5160 124° Southeast  Level FlightAware Approximate
Wed 06:31:00 PM 18.2658 -63.4804 124° Southeast  Level FlightAware Approximate
Wed 06:32:00 PM 18.2433 -63.4448 124° Southeast  Level FlightAware Approximate
Wed 06:33:00 PM 18.2208 -63.4091 124° Southeast  Level FlightAware Approximate
Wed 06:34:00 PM 18.1982 -63.3735 124° Southeast  Level FlightAware Approximate
Wed 06:35:00 PM 18.1760 -63.3377 122° Southeast  Level FlightAware Approximate
Wed 06:36:00 PM 18.1543 -63.3016 122° Southeast  Level FlightAware Approximate
Wed 06:37:00 PM 18.1325 -63.2654 125° Southeast  Level FlightAware Approximate
Wed 06:38:00 PM 18.1092 -63.2304 125° Southeast  Level FlightAware Approximate
Wed 06:39:00 PM 18.0859 -63.1954 125° Southeast  Level FlightAware Approximate
Wed 06:40:00 PM 18.0625 -63.1604 125° Southeast  Level FlightAware Approximate
Wed 06:41:00 PM 18.0392 -63.1254 125° Southeast  Level FlightAware Approximate
Wed 06:42:00 PM 18.0608 -63.1029 25° Northeast  Level FlightAware Approximate
Wed 06:43:00 PM 18.0975 -63.0846 25° Northeast  Level FlightAware Approximate
Wed 06:44:00 PM 18.1343 -63.0664 13° North  Level FlightAware Approximate
Wed 06:45:00 PM 18.1738 -63.0565 13° North  Level FlightAware Approximate
Wed 06:46:00 PM 18.2000 -63.0500 13° North  Level FlightAware Approximate
Wed 06:47:00 PM 18.2048 -63.0551 13° North  Level Estimated
Wed 06:48:00 PM 18.2000 -63.0500 13° North  Level FlightAware Approximate
Wed 06:49:00 PM 18.2048 -63.0551 13° North  Level Estimated
Wed 06:50:00 PM 18.2000 -63.0500 13° North  Level FlightAware Approximate
Wed 06:51:00 PM 18.2048 -63.0551 13° North  Level Estimated
Wed 06:52:00 PM 18.2000 -63.0500 13° North  Level FlightAware Approximate
Wed 06:53:00 PM 18.2048 -63.0551 13° North  Level Estimated
Wed 06:54:00 PM 18.2000 -63.0500 13° North  Level FlightAware Approximate
Wed 06:55:00 PM 18.2048 -63.0551 13° North  Level Estimated
Wed 06:56:00 PM 18.2000 -63.0500 13° North  Level FlightAware Approximate
Wed 06:57:00 PM 18.2048 -63.0551 13° North  Level Estimated
Wed 06:58:00 PM 18.2000 -63.0500 13° North  Level FlightAware Approximate
Wed 06:59:00 PM 18.2048 -63.0551 13° North  Level Estimated
Wed 07:00:00 PM 18.2000 -63.0500 13° North  Level FlightAware Approximate
Wed 07:01:00 PM 18.2048 -63.0551 13° North  Level Estimated
Wed 07:02:00 PM 18.2000 -63.0500 13° North  Level FlightAware Approximate
Wed 07:03:00 PM 18.2048 -63.0551 13° North  Level Estimated

Login

Don't have an account? Register now (free) for customized features, flight alerts, and more!